sensor_id;sensor_type;location;lat;lon;timestamp;P1;durP1;ratioP1;P2;durP2;ratioP2
72590;SDS011;60625;51.212;5.952;2022-09-21T00:02:16;13.30;;;2.60;;
72590;SDS011;60625;51.212;5.952;2022-09-21T00:07:17;8.30;;;2.80;;
72590;SDS011;60625;51.212;5.952;2022-09-21T00:12:17;11.60;;;3.30;;
72590;SDS011;60625;51.212;5.952;2022-09-21T00:17:18;10.10;;;3.10;;
72590;SDS011;60625;51.212;5.952;2022-09-21T00:22:19;7.20;;;3.30;;
72590;SDS011;60625;51.212;5.952;2022-09-21T00:27:20;9.10;;;3.60;;
72590;SDS011;60625;51.212;5.952;2022-09-21T00:32:21;8.00;;;3.50;;
72590;SDS011;60625;51.212;5.952;2022-09-21T00:37:25;8.20;;;3.60;;
72590;SDS011;60625;51.212;5.952;2022-09-21T00:42:30;8.30;;;3.30;;
72590;SDS011;60625;51.212;5.952;2022-09-21T00:47:38;8.10;;;3.60;;
72590;SDS011;60625;51.212;5.952;2022-09-21T00:52:44;9.40;;;3.50;;
72590;SDS011;60625;51.212;5.952;2022-09-21T00:57:53;7.70;;;2.80;;
72590;SDS011;60625;51.212;5.952;2022-09-21T01:02:55;11.90;;;4.20;;
72590;SDS011;60625;51.212;5.952;2022-09-21T01:08:03;11.50;;;4.30;;
72590;SDS011;60625;51.212;5.952;2022-09-21T01:13:21;11.50;;;3.90;;
72590;SDS011;60625;51.212;5.952;2022-09-21T01:19:16;10.20;;;4.00;;
72590;SDS011;60625;51.212;5.952;2022-09-21T01:24:58;9.20;;;4.30;;
72590;SDS011;60625;51.212;5.952;2022-09-21T01:29:58;10.90;;;4.60;;
72590;SDS011;60625;51.212;5.952;2022-09-21T01:35:24;8.30;;;3.90;;
72590;SDS011;60625;51.212;5.952;2022-09-21T01:40:41;8.00;;;3.40;;
72590;SDS011;60625;51.212;5.952;2022-09-21T01:45:46;8.10;;;3.20;;
72590;SDS011;60625;51.212;5.952;2022-09-21T01:50:53;11.80;;;3.90;;
72590;SDS011;60625;51.212;5.952;2022-09-21T01:55:58;7.70;;;4.10;;
72590;SDS011;60625;51.212;5.952;2022-09-21T02:01:05;7.50;;;3.80;;
72590;SDS011;60625;51.212;5.952;2022-09-21T02:06:07;9.70;;;3.70;;
72590;SDS011;60625;51.212;5.952;2022-09-21T02:11:09;6.60;;;3.30;;
72590;SDS011;60625;51.212;5.952;2022-09-21T02:22:08;7.80;;;3.70;;
72590;SDS011;60625;51.212;5.952;2022-09-21T02:38:41;7.00;;;3.50;;
72590;SDS011;60625;51.212;5.952;2022-09-21T02:44:45;13.60;;;4.20;;
72590;SDS011;60625;51.212;5.952;2022-09-21T02:49:46;7.20;;;3.50;;
72590;SDS011;60625;51.212;5.952;2022-09-21T02:54:53;9.80;;;3.80;;
72590;SDS011;60625;51.212;5.952;2022-09-21T02:59:54;14.40;;;4.30;;
72590;SDS011;60625;51.212;5.952;2022-09-21T03:04:55;8.60;;;3.80;;
72590;SDS011;60625;51.212;5.952;2022-09-21T03:09:56;8.30;;;3.90;;
72590;SDS011;60625;51.212;5.952;2022-09-21T03:14:57;14.60;;;4.20;;
72590;SDS011;60625;51.212;5.952;2022-09-21T03:19:59;9.10;;;3.80;;
72590;SDS011;60625;51.212;5.952;2022-09-21T03:25:00;10.70;;;3.80;;
72590;SDS011;60625;51.212;5.952;2022-09-21T03:30:00;9.00;;;3.80;;
72590;SDS011;60625;51.212;5.952;2022-09-21T03:35:01;10.70;;;3.90;;
72590;SDS011;60625;51.212;5.952;2022-09-21T03:40:01;7.80;;;3.80;;
72590;SDS011;60625;51.212;5.952;2022-09-21T03:45:02;9.20;;;4.00;;
72590;SDS011;60625;51.212;5.952;2022-09-21T03:50:05;5.90;;;3.70;;
72590;SDS011;60625;51.212;5.952;2022-09-21T03:55:08;6.90;;;3.70;;
72590;SDS011;60625;51.212;5.952;2022-09-21T04:00:09;8.80;;;4.20;;
72590;SDS011;60625;51.212;5.952;2022-09-21T04:05:11;10.90;;;4.10;;
72590;SDS011;60625;51.212;5.952;2022-09-21T04:10:18;8.30;;;4.60;;
72590;SDS011;60625;51.212;5.952;2022-09-21T04:15:21;10.30;;;4.20;;
72590;SDS011;60625;51.212;5.952;2022-09-21T04:20:22;8.70;;;4.10;;
72590;SDS011;60625;51.212;5.952;2022-09-21T04:25:23;13.60;;;4.60;;
72590;SDS011;60625;51.212;5.952;2022-09-21T04:30:24;14.70;;;6.00;;
72590;SDS011;60625;51.212;5.952;2022-09-21T04:35:24;16.50;;;4.60;;
72590;SDS011;60625;51.212;5.952;2022-09-21T04:40:25;8.70;;;4.20;;
72590;SDS011;60625;51.212;5.952;2022-09-21T04:45:27;11.40;;;4.40;;
72590;SDS011;60625;51.212;5.952;2022-09-21T04:50:28;11.60;;;5.20;;
72590;SDS011;60625;51.212;5.952;2022-09-21T04:55:36;17.60;;;5.70;;
72590;SDS011;60625;51.212;5.952;2022-09-21T05:00:37;12.20;;;5.70;;
72590;SDS011;60625;51.212;5.952;2022-09-21T05:05:38;15.50;;;5.40;;
72590;SDS011;60625;51.212;5.952;2022-09-21T05:10:38;10.40;;;4.80;;
72590;SDS011;60625;51.212;5.952;2022-09-21T05:15:41;9.70;;;4.10;;
72590;SDS011;60625;51.212;5.952;2022-09-21T05:20:41;10.60;;;4.00;;
72590;SDS011;60625;51.212;5.952;2022-09-21T05:25:42;9.40;;;4.20;;
72590;SDS011;60625;51.212;5.952;2022-09-21T05:31:03;9.40;;;4.30;;
72590;SDS011;60625;51.212;5.952;2022-09-21T05:36:40;7.30;;;4.20;;
72590;SDS011;60625;51.212;5.952;2022-09-21T05:41:52;7.70;;;4.00;;
72590;SDS011;60625;51.212;5.952;2022-09-21T06:08:19;5.90;;;3.30;;
72590;SDS011;60625;51.212;5.952;2022-09-21T06:13:20;6.90;;;3.10;;
72590;SDS011;60625;51.212;5.952;2022-09-21T06:18:21;6.40;;;3.70;;
72590;SDS011;60625;51.212;5.952;2022-09-21T06:23:22;7.40;;;3.60;;
72590;SDS011;60625;51.212;5.952;2022-09-21T06:28:22;6.50;;;3.50;;
72590;SDS011;60625;51.212;5.952;2022-09-21T06:33:23;6.40;;;3.30;;
72590;SDS011;60625;51.212;5.952;2022-09-21T06:38:26;10.20;;;3.60;;
72590;SDS011;60625;51.212;5.952;2022-09-21T06:43:29;6.60;;;3.50;;
72590;SDS011;60625;51.212;5.952;2022-09-21T06:48:32;7.00;;;3.80;;
72590;SDS011;60625;51.212;5.952;2022-09-21T06:53:34;6.60;;;3.70;;
72590;SDS011;60625;51.212;5.952;2022-09-21T06:58:35;6.30;;;3.10;;
72590;SDS011;60625;51.212;5.952;2022-09-21T07:03:39;5.80;;;3.30;;
72590;SDS011;60625;51.212;5.952;2022-09-21T07:08:41;5.60;;;3.30;;
72590;SDS011;60625;51.212;5.952;2022-09-21T07:13:43;6.80;;;3.50;;
72590;SDS011;60625;51.212;5.952;2022-09-21T07:18:44;5.60;;;3.20;;
72590;SDS011;60625;51.212;5.952;2022-09-21T07:23:46;6.10;;;3.60;;
72590;SDS011;60625;51.212;5.952;2022-09-21T07:28:46;7.80;;;4.40;;
72590;SDS011;60625;51.212;5.952;2022-09-21T07:33:47;10.10;;;5.50;;
72590;SDS011;60625;51.212;5.952;2022-09-21T07:38:47;9.10;;;5.60;;
72590;SDS011;60625;51.212;5.952;2022-09-21T07:43:48;12.00;;;5.60;;
72590;SDS011;60625;51.212;5.952;2022-09-21T07:48:52;10.60;;;6.20;;
72590;SDS011;60625;51.212;5.952;2022-09-21T07:53:55;10.20;;;6.60;;
72590;SDS011;60625;51.212;5.952;2022-09-21T07:58:56;12.90;;;8.10;;
72590;SDS011;60625;51.212;5.952;2022-09-21T08:04:09;18.70;;;8.40;;
72590;SDS011;60625;51.212;5.952;2022-09-21T08:09:10;23.60;;;11.00;;
72590;SDS011;60625;51.212;5.952;2022-09-21T08:14:10;17.30;;;10.60;;
72590;SDS011;60625;51.212;5.952;2022-09-21T08:19:18;24.30;;;11.20;;
72590;SDS011;60625;51.212;5.952;2022-09-21T08:24:20;22.50;;;10.60;;
72590;SDS011;60625;51.212;5.952;2022-09-21T08:29:22;22.90;;;10.20;;
72590;SDS011;60625;51.212;5.952;2022-09-21T08:34:23;21.00;;;10.50;;
72590;SDS011;60625;51.212;5.952;2022-09-21T08:39:24;15.70;;;8.60;;
72590;SDS011;60625;51.212;5.952;2022-09-21T08:44:39;16.60;;;9.50;;
72590;SDS011;60625;51.212;5.952;2022-09-21T08:49:48;17.30;;;10.10;;
72590;SDS011;60625;51.212;5.952;2022-09-21T08:54:55;18.00;;;9.70;;
72590;SDS011;60625;51.212;5.952;2022-09-21T08:59:59;20.10;;;10.30;;
72590;SDS011;60625;51.212;5.952;2022-09-21T09:05:36;19.90;;;10.90;;
72590;SDS011;60625;51.212;5.952;2022-09-21T09:16:21;16.50;;;8.70;;
72590;SDS011;60625;51.212;5.952;2022-09-21T09:21:43;16.40;;;9.20;;
72590;SDS011;60625;51.212;5.952;2022-09-21T09:26:49;21.10;;;9.80;;
72590;SDS011;60625;51.212;5.952;2022-09-21T09:31:53;20.10;;;9.80;;
72590;SDS011;60625;51.212;5.952;2022-09-21T09:37:11;17.70;;;8.80;;
72590;SDS011;60625;51.212;5.952;2022-09-21T09:42:32;14.70;;;8.10;;
72590;SDS011;60625;51.212;5.952;2022-09-21T09:53:13;17.60;;;8.70;;
72590;SDS011;60625;51.212;5.952;2022-09-21T09:58:27;24.70;;;9.30;;
72590;SDS011;60625;51.212;5.952;2022-09-21T10:04:04;15.30;;;9.00;;
72590;SDS011;60625;51.212;5.952;2022-09-21T10:09:32;17.20;;;8.70;;
72590;SDS011;60625;51.212;5.952;2022-09-21T10:14:35;18.00;;;8.20;;
72590;SDS011;60625;51.212;5.952;2022-09-21T10:19:35;11.90;;;6.60;;
72590;SDS011;60625;51.212;5.952;2022-09-21T10:24:37;14.50;;;6.80;;
72590;SDS011;60625;51.212;5.952;2022-09-21T10:29:47;16.90;;;7.30;;
72590;SDS011;60625;51.212;5.952;2022-09-21T10:45:24;15.50;;;5.90;;
72590;SDS011;60625;51.212;5.952;2022-09-21T10:50:38;10.20;;;5.50;;
72590;SDS011;60625;51.212;5.952;2022-09-21T10:55:50;14.70;;;6.40;;
72590;SDS011;60625;51.212;5.952;2022-09-21T11:00:55;14.50;;;6.30;;
72590;SDS011;60625;51.212;5.952;2022-09-21T11:06:14;16.70;;;6.20;;
72590;SDS011;60625;51.212;5.952;2022-09-21T11:16:59;13.90;;;6.20;;
72590;SDS011;60625;51.212;5.952;2022-09-21T11:27:41;6.00;;;2.30;;
72590;SDS011;60625;51.212;5.952;2022-09-21T11:34:00;6.80;;;2.00;;
72590;SDS011;60625;51.212;5.952;2022-09-21T12:01:00;9.30;;;3.30;;
72590;SDS011;60625;51.212;5.952;2022-09-21T12:17:56;8.00;;;2.60;;
72590;SDS011;60625;51.212;5.952;2022-09-21T12:23:02;6.70;;;2.40;;
72590;SDS011;60625;51.212;5.952;2022-09-21T12:28:22;11.20;;;2.10;;
72590;SDS011;60625;51.212;5.952;2022-09-21T12:40:12;6.20;;;1.70;;
72590;SDS011;60625;51.212;5.952;2022-09-21T12:45:12;6.60;;;1.30;;
72590;SDS011;60625;51.212;5.952;2022-09-21T13:01:30;8.00;;;1.70;;
72590;SDS011;60625;51.212;5.952;2022-09-21T13:16:58;6.20;;;1.50;;
72590;SDS011;60625;51.212;5.952;2022-09-21T13:22:21;6.40;;;1.30;;
72590;SDS011;60625;51.212;5.952;2022-09-21T13:27:23;6.50;;;1.40;;
72590;SDS011;60625;51.212;5.952;2022-09-21T13:32:50;5.90;;;1.70;;
72590;SDS011;60625;51.212;5.952;2022-09-21T13:38:33;7.60;;;2.00;;
72590;SDS011;60625;51.212;5.952;2022-09-21T13:54:11;6.50;;;1.40;;
72590;SDS011;60625;51.212;5.952;2022-09-21T13:59:21;5.80;;;1.40;;
72590;SDS011;60625;51.212;5.952;2022-09-21T14:04:26;4.70;;;1.20;;
72590;SDS011;60625;51.212;5.952;2022-09-21T14:09:37;4.40;;;1.20;;
72590;SDS011;60625;51.212;5.952;2022-09-21T14:15:22;5.90;;;1.10;;
72590;SDS011;60625;51.212;5.952;2022-09-21T14:20:32;5.40;;;1.30;;
72590;SDS011;60625;51.212;5.952;2022-09-21T14:26:44;7.60;;;1.40;;
72590;SDS011;60625;51.212;5.952;2022-09-21T14:31:36;7.70;;;1.50;;
72590;SDS011;60625;51.212;5.952;2022-09-21T14:36:42;6.20;;;1.30;;
72590;SDS011;60625;51.212;5.952;2022-09-21T14:41:47;4.70;;;1.30;;
72590;SDS011;60625;51.212;5.952;2022-09-21T15:04:10;5.10;;;1.30;;
72590;SDS011;60625;51.212;5.952;2022-09-21T15:09:29;6.80;;;1.10;;
72590;SDS011;60625;51.212;5.952;2022-09-21T15:20:37;5.10;;;1.20;;
72590;SDS011;60625;51.212;5.952;2022-09-21T15:25:38;8.20;;;1.30;;
72590;SDS011;60625;51.212;5.952;2022-09-21T15:30:41;6.10;;;0.90;;
72590;SDS011;60625;51.212;5.952;2022-09-21T15:35:45;6.30;;;1.40;;
72590;SDS011;60625;51.212;5.952;2022-09-21T15:40:46;3.70;;;1.10;;
72590;SDS011;60625;51.212;5.952;2022-09-21T15:45:56;6.80;;;1.60;;
72590;SDS011;60625;51.212;5.952;2022-09-21T15:56:32;4.80;;;1.00;;
72590;SDS011;60625;51.212;5.952;2022-09-21T16:02:00;6.50;;;1.10;;
72590;SDS011;60625;51.212;5.952;2022-09-21T16:12:43;4.10;;;1.30;;
72590;SDS011;60625;51.212;5.952;2022-09-21T16:18:29;4.00;;;1.10;;
72590;SDS011;60625;51.212;5.952;2022-09-21T16:23:34;7.20;;;1.30;;
72590;SDS011;60625;51.212;5.952;2022-09-21T16:28:40;3.80;;;0.90;;
72590;SDS011;60625;51.212;5.952;2022-09-21T16:33:42;4.70;;;1.10;;
72590;SDS011;60625;51.212;5.952;2022-09-21T16:38:55;5.70;;;1.20;;
72590;SDS011;60625;51.212;5.952;2022-09-21T16:43:55;6.50;;;1.30;;
72590;SDS011;60625;51.212;5.952;2022-09-21T16:48:57;5.40;;;1.30;;
72590;SDS011;60625;51.212;5.952;2022-09-21T16:53:59;5.50;;;1.30;;
72590;SDS011;60625;51.212;5.952;2022-09-21T16:59:11;5.70;;;1.20;;
72590;SDS011;60625;51.212;5.952;2022-09-21T17:04:13;5.60;;;1.40;;
72590;SDS011;60625;51.212;5.952;2022-09-21T17:09:17;5.40;;;1.20;;
72590;SDS011;60625;51.212;5.952;2022-09-21T17:14:20;5.30;;;1.50;;
72590;SDS011;60625;51.212;5.952;2022-09-21T17:19:21;4.60;;;1.20;;
72590;SDS011;60625;51.212;5.952;2022-09-21T17:24:21;4.10;;;1.20;;
72590;SDS011;60625;51.212;5.952;2022-09-21T17:29:26;6.00;;;1.30;;
72590;SDS011;60625;51.212;5.952;2022-09-21T17:34:28;5.50;;;1.40;;
72590;SDS011;60625;51.212;5.952;2022-09-21T17:39:31;5.60;;;1.10;;
72590;SDS011;60625;51.212;5.952;2022-09-21T17:44:57;7.10;;;1.30;;
72590;SDS011;60625;51.212;5.952;2022-09-21T17:50:25;4.50;;;1.50;;
72590;SDS011;60625;51.212;5.952;2022-09-21T17:55:27;10.10;;;1.20;;
72590;SDS011;60625;51.212;5.952;2022-09-21T18:06:08;9.30;;;1.70;;
72590;SDS011;60625;51.212;5.952;2022-09-21T18:16:55;6.70;;;1.70;;
72590;SDS011;60625;51.212;5.952;2022-09-21T18:27:57;5.80;;;1.90;;
72590;SDS011;60625;51.212;5.952;2022-09-21T18:33:13;8.30;;;1.70;;
72590;SDS011;60625;51.212;5.952;2022-09-21T18:38:42;9.50;;;1.90;;
72590;SDS011;60625;51.212;5.952;2022-09-21T18:44:02;8.30;;;2.10;;
72590;SDS011;60625;51.212;5.952;2022-09-21T18:49:22;5.30;;;2.10;;
72590;SDS011;60625;51.212;5.952;2022-09-21T18:54:44;8.80;;;2.20;;
72590;SDS011;60625;51.212;5.952;2022-09-21T18:59:45;6.30;;;2.00;;
72590;SDS011;60625;51.212;5.952;2022-09-21T19:04:46;7.80;;;2.20;;
72590;SDS011;60625;51.212;5.952;2022-09-21T19:10:23;7.40;;;2.70;;
72590;SDS011;60625;51.212;5.952;2022-09-21T19:21:07;6.80;;;2.10;;
72590;SDS011;60625;51.212;5.952;2022-09-21T19:26:48;7.80;;;2.10;;
72590;SDS011;60625;51.212;5.952;2022-09-21T19:31:48;5.80;;;2.50;;
72590;SDS011;60625;51.212;5.952;2022-09-21T19:36:48;9.90;;;2.70;;
72590;SDS011;60625;51.212;5.952;2022-09-21T19:41:59;7.70;;;2.40;;
72590;SDS011;60625;51.212;5.952;2022-09-21T19:47:30;7.50;;;2.90;;
72590;SDS011;60625;51.212;5.952;2022-09-21T19:52:35;8.40;;;3.50;;
72590;SDS011;60625;51.212;5.952;2022-09-21T19:57:36;8.10;;;2.90;;
72590;SDS011;60625;51.212;5.952;2022-09-21T20:14:06;11.70;;;2.70;;
72590;SDS011;60625;51.212;5.952;2022-09-21T20:29:49;6.60;;;2.30;;
72590;SDS011;60625;51.212;5.952;2022-09-21T20:34:49;8.60;;;2.50;;
72590;SDS011;60625;51.212;5.952;2022-09-21T20:39:50;9.50;;;2.70;;
72590;SDS011;60625;51.212;5.952;2022-09-21T20:44:52;9.40;;;2.60;;
72590;SDS011;60625;51.212;5.952;2022-09-21T20:49:53;7.40;;;2.60;;
72590;SDS011;60625;51.212;5.952;2022-09-21T20:54:53;10.00;;;2.60;;
72590;SDS011;60625;51.212;5.952;2022-09-21T20:59:54;6.40;;;2.20;;
72590;SDS011;60625;51.212;5.952;2022-09-21T21:04:54;5.70;;;2.30;;
72590;SDS011;60625;51.212;5.952;2022-09-21T21:09:55;7.40;;;2.90;;
72590;SDS011;60625;51.212;5.952;2022-09-21T21:14:56;9.50;;;2.90;;
72590;SDS011;60625;51.212;5.952;2022-09-21T21:19:58;7.50;;;2.60;;
72590;SDS011;60625;51.212;5.952;2022-09-21T21:24:58;7.60;;;2.80;;
72590;SDS011;60625;51.212;5.952;2022-09-21T21:29:59;9.30;;;2.90;;
72590;SDS011;60625;51.212;5.952;2022-09-21T21:35:00;7.60;;;2.90;;
72590;SDS011;60625;51.212;5.952;2022-09-21T21:40:01;9.50;;;3.40;;
72590;SDS011;60625;51.212;5.952;2022-09-21T21:45:04;7.80;;;3.00;;
72590;SDS011;60625;51.212;5.952;2022-09-21T21:50:05;7.80;;;3.10;;
72590;SDS011;60625;51.212;5.952;2022-09-21T21:55:06;8.80;;;3.60;;
72590;SDS011;60625;51.212;5.952;2022-09-21T22:00:08;7.20;;;2.60;;
72590;SDS011;60625;51.212;5.952;2022-09-21T22:05:09;5.90;;;2.80;;
72590;SDS011;60625;51.212;5.952;2022-09-21T22:10:10;7.50;;;2.70;;
72590;SDS011;60625;51.212;5.952;2022-09-21T22:15:10;10.50;;;3.30;;
72590;SDS011;60625;51.212;5.952;2022-09-21T22:20:11;6.40;;;2.90;;
72590;SDS011;60625;51.212;5.952;2022-09-21T22:25:11;12.20;;;3.50;;
72590;SDS011;60625;51.212;5.952;2022-09-21T22:30:12;8.10;;;3.30;;
72590;SDS011;60625;51.212;5.952;2022-09-21T22:35:12;10.60;;;3.50;;
72590;SDS011;60625;51.212;5.952;2022-09-21T22:40:13;10.60;;;3.50;;
72590;SDS011;60625;51.212;5.952;2022-09-21T22:45:14;8.00;;;3.20;;
72590;SDS011;60625;51.212;5.952;2022-09-21T22:50:14;6.80;;;3.40;;
72590;SDS011;60625;51.212;5.952;2022-09-21T22:55:15;8.90;;;3.60;;
72590;SDS011;60625;51.212;5.952;2022-09-21T23:00:16;7.90;;;3.70;;
72590;SDS011;60625;51.212;5.952;2022-09-21T23:05:16;7.70;;;3.60;;
72590;SDS011;60625;51.212;5.952;2022-09-21T23:10:18;7.70;;;3.90;;
72590;SDS011;60625;51.212;5.952;2022-09-21T23:15:19;11.50;;;4.40;;
72590;SDS011;60625;51.212;5.952;2022-09-21T23:20:20;11.50;;;3.40;;
72590;SDS011;60625;51.212;5.952;2022-09-21T23:25:20;8.20;;;3.90;;
72590;SDS011;60625;51.212;5.952;2022-09-21T23:30:21;9.90;;;3.50;;
72590;SDS011;60625;51.212;5.952;2022-09-21T23:35:22;7.70;;;3.60;;
72590;SDS011;60625;51.212;5.952;2022-09-21T23:40:23;8.60;;;3.70;;
72590;SDS011;60625;51.212;5.952;2022-09-21T23:45:23;7.30;;;3.80;;
72590;SDS011;60625;51.212;5.952;2022-09-21T23:50:24;8.70;;;3.90;;
72590;SDS011;60625;51.212;5.952;2022-09-21T23:55:24;8.00;;;4.00;;
